Time;durP1;ratioP1;P1;durP2;ratioP2;P2;SDS_P1;SDS_P2;PMS_P1;PMS_P2;Temp;Humidity;BMP_temperature;BMP_pressure;BME280_temperature;BME280_humidity;BME280_pressure;Samples;Min_cycle;Max_cycle;Signal;HPM_P1;HPM_P2
2022/09/16 00:01:58;;;;;;;16.90;11.00;;;;;;;;;;5094420;28;20229;-77
2022/09/16 00:05:02;;;;;;;15.27;11.03;;;;;;;;;;5095574;28;20649;-77
2022/09/16 00:08:07;;;;;;;18.80;11.63;;;;;;;;;;5094813;28;20190;-77
2022/09/16 00:11:11;;;;;;;14.83;12.10;;;;;;;;;;5094772;28;20217;-77
2022/09/16 00:14:16;;;;;;;14.40;10.57;;;;;;;;;;5095107;28;20182;-77
2022/09/16 00:17:21;;;;;;;18.63;11.70;;;;;;;;;;5094544;28;20185;-77
2022/09/16 00:20:25;;;;;;;16.03;11.53;;;;;;;;;;5094039;28;20186;-77
2022/09/16 00:23:29;;;;;;;15.27;12.30;;;;;;;;;;5093837;28;20214;-77
2022/09/16 00:26:33;;;;;;;17.53;12.43;;;;;;;;;;5094379;28;20186;-77
2022/09/16 00:29:37;;;;;;;20.10;12.30;;;;;;;;;;5094833;28;20190;-77
2022/09/16 00:32:42;;;;;;;17.20;13.40;;;;;;;;;;5105127;28;20221;-77
2022/09/16 00:35:46;;;;;;;16.47;11.97;;;;;;;;;;5082252;28;20628;-77
2022/09/16 00:38:53;;;;;;;16.27;12.53;;;;;;;;;;5081882;28;20542;-78
2022/09/16 00:41:57;;;;;;;15.90;12.47;;;;;;;;;;5093228;28;20240;-77
2022/09/16 00:45:12;;;;;;;19.87;12.00;;;;;;;;;;5094285;28;20189;-77
2022/09/16 00:48:21;;;;;;;15.90;13.13;;;;;;;;;;5093828;28;20202;-77
2022/09/16 00:51:26;;;;;;;13.80;11.40;;;;;;;;;;5093197;28;20230;-77
2022/09/16 00:54:31;;;;;;;16.10;11.37;;;;;;;;;;5093232;28;20182;-77
2022/09/16 00:57:36;;;;;;;18.90;11.67;;;;;;;;;;5093988;28;20668;-77
2022/09/16 01:00:41;;;;;;;15.80;11.57;;;;;;;;;;5093784;28;20209;-77
2022/09/16 01:03:52;;;;;;;15.47;12.63;;;;;;;;;;5093154;28;20649;-77
2022/09/16 01:06:56;;;;;;;15.23;11.47;;;;;;;;;;5093880;28;20182;-77
2022/09/16 01:10:01;;;;;;;12.87;11.37;;;;;;;;;;5093944;28;20194;-77
2022/09/16 01:13:09;;;;;;;13.50;11.57;;;;;;;;;;5092032;28;20229;-77
2022/09/16 01:16:31;;;;;;;16.30;11.07;;;;;;;;;;5081264;28;20680;-77
2022/09/16 01:20:12;;;;;;;14.37;12.23;;;;;;;;;;5093559;28;20542;-77
2022/09/16 01:23:46;;;;;;;13.93;11.13;;;;;;;;;;5093372;28;20225;-77
2022/09/16 01:27:30;;;;;;;14.10;11.30;;;;;;;;;;5093461;28;20197;-77
2022/09/16 01:30:42;;;;;;;14.97;11.40;;;;;;;;;;5083359;28;20214;-77
2022/09/16 01:34:05;;;;;;;16.27;11.50;;;;;;;;;;5104412;28;20194;-77
2022/09/16 01:37:27;;;;;;;15.87;10.73;;;;;;;;;;5093525;28;20190;-77
2022/09/16 01:40:49;;;;;;;15.00;11.37;;;;;;;;;;5093506;28;20194;-77
2022/09/16 01:43:57;;;;;;;13.60;11.40;;;;;;;;;;5092823;28;20210;-77
2022/09/16 01:47:09;;;;;;;14.83;11.33;;;;;;;;;;5093198;28;20186;-77
2022/09/16 01:50:23;;;;;;;16.17;12.50;;;;;;;;;;5093592;28;20190;-77
2022/09/16 01:53:33;;;;;;;16.57;12.47;;;;;;;;;;5093480;28;20191;-77
2022/09/16 01:56:47;;;;;;;15.90;12.03;;;;;;;;;;5093180;28;20565;-77
2022/09/16 02:00:05;;;;;;;17.70;12.43;;;;;;;;;;5093137;28;20637;-77
2022/09/16 02:03:15;;;;;;;16.57;12.60;;;;;;;;;;5093115;28;20225;-77
2022/09/16 02:06:22;;;;;;;19.60;13.13;;;;;;;;;;5092661;28;20641;-77
2022/09/16 02:09:32;;;;;;;15.90;12.53;;;;;;;;;;5093785;28;20526;-77
2022/09/16 02:12:41;;;;;;;15.70;11.40;;;;;;;;;;5093087;28;20234;-77
2022/09/16 02:15:51;;;;;;;18.73;13.03;;;;;;;;;;5092345;28;20186;-77
2022/09/16 02:19:01;;;;;;;15.27;12.20;;;;;;;;;;5093111;28;20194;-77
2022/09/16 02:22:12;;;;;;;14.63;12.07;;;;;;;;;;5092528;28;20241;-77
2022/09/16 02:25:17;;;;;;;15.17;12.33;;;;;;;;;;5095243;28;20198;-77
2022/09/16 02:28:31;;;;;;;13.60;11.40;;;;;;;;;;5096894;28;20186;-77
2022/09/16 02:31:37;;;;;;;14.77;11.70;;;;;;;;;;5095954;28;20296;-77
2022/09/16 02:34:45;;;;;;;14.13;11.33;;;;;;;;;;5096717;28;20197;-77
2022/09/16 02:37:56;;;;;;;19.30;13.30;;;;;;;;;;5096489;28;20210;-77
2022/09/16 02:41:00;;;;;;;14.63;12.03;;;;;;;;;;5095666;28;20186;-77
2022/09/16 02:44:05;;;;;;;15.80;12.07;;;;;;;;;;5096652;28;20210;-77
2022/09/16 02:47:19;;;;;;;16.57;13.07;;;;;;;;;;5096405;28;20186;-77
2022/09/16 02:51:08;;;;;;;16.43;11.60;;;;;;;;;;5096491;28;20190;-77
2022/09/16 02:54:50;;;;;;;17.33;11.90;;;;;;;;;;5083923;28;20206;-77
2022/09/16 02:57:55;;;;;;;15.33;12.97;;;;;;;;;;5096133;28;20681;-76
2022/09/16 03:00:59;;;;;;;14.83;11.87;;;;;;;;;;5096241;28;20530;-78
2022/09/16 03:04:04;;;;;;;14.13;11.33;;;;;;;;;;5095092;28;20210;-77
2022/09/16 03:07:10;;;;;;;18.43;12.43;;;;;;;;;;5096263;28;20562;-77
2022/09/16 03:10:14;;;;;;;17.83;12.47;;;;;;;;;;5095500;28;20182;-77
2022/09/16 03:13:35;;;;;;;15.83;11.77;;;;;;;;;;5096094;28;20652;-77
2022/09/16 03:16:59;;;;;;;17.07;11.37;;;;;;;;;;5095881;28;20245;-77
2022/09/16 03:20:33;;;;;;;14.13;11.80;;;;;;;;;;5096150;28;20198;-77
2022/09/16 03:23:56;;;;;;;16.23;11.43;;;;;;;;;;5095218;28;20217;-77
2022/09/16 03:27:08;;;;;;;16.30;12.07;;;;;;;;;;5095534;28;20179;-77
2022/09/16 03:30:12;;;;;;;18.53;12.17;;;;;;;;;;5095379;28;20190;-77
2022/09/16 03:33:29;;;;;;;15.23;11.67;;;;;;;;;;5095348;28;20174;-77
2022/09/16 03:36:41;;;;;;;18.47;11.97;;;;;;;;;;5094721;28;20187;-77
2022/09/16 03:39:52;;;;;;;17.60;11.63;;;;;;;;;;5094778;28;20194;-77
2022/09/16 03:42:57;;;;;;;16.37;12.53;;;;;;;;;;5094976;28;20236;-77
2022/09/16 03:46:01;;;;;;;15.97;12.23;;;;;;;;;;5094646;28;20542;-77
2022/09/16 03:49:05;;;;;;;17.40;12.47;;;;;;;;;;5095309;28;20186;-77
2022/09/16 03:52:09;;;;;;;13.93;11.83;;;;;;;;;;5095306;28;20221;-77
2022/09/16 03:55:15;;;;;;;14.63;11.43;;;;;;;;;;5094912;28;20182;-77
2022/09/16 03:58:19;;;;;;;19.10;12.23;;;;;;;;;;5095560;28;20186;-77
2022/09/16 04:01:24;;;;;;;16.30;11.97;;;;;;;;;;5094737;28;20704;-76
2022/09/16 04:04:28;;;;;;;17.43;11.27;;;;;;;;;;5093782;28;20689;-77
2022/09/16 04:07:32;;;;;;;15.37;11.93;;;;;;;;;;5095277;28;20227;-77
2022/09/16 04:10:36;;;;;;;17.63;11.70;;;;;;;;;;5094757;28;20189;-77
2022/09/16 04:13:40;;;;;;;18.87;12.17;;;;;;;;;;5094955;28;20190;-76
2022/09/16 04:16:44;;;;;;;14.33;10.93;;;;;;;;;;5094826;28;20190;-77
2022/09/16 04:19:50;;;;;;;14.00;10.47;;;;;;;;;;5095188;28;20202;-77
2022/09/16 04:22:54;;;;;;;14.37;10.23;;;;;;;;;;5094001;28;20226;-77
2022/09/16 04:26:00;;;;;;;16.90;9.17;;;;;;;;;;5093711;28;20186;-77
2022/09/16 04:29:04;;;;;;;14.13;11.40;;;;;;;;;;5105452;28;20190;-77
2022/09/16 04:32:08;;;;;;;14.33;9.43;;;;;;;;;;5094243;28;20221;-77
2022/09/16 04:35:13;;;;;;;16.07;11.27;;;;;;;;;;5094478;28;20178;-77
2022/09/16 04:38:17;;;;;;;13.20;11.23;;;;;;;;;;5093353;28;20177;-77
2022/09/16 04:41:24;;;;;;;14.07;10.93;;;;;;;;;;5094189;28;20667;-76
2022/09/16 04:44:29;;;;;;;14.17;10.60;;;;;;;;;;5093831;28;20263;-77
2022/09/16 04:47:33;;;;;;;14.10;10.40;;;;;;;;;;5094078;28;20182;-77
2022/09/16 04:50:37;;;;;;;13.83;10.00;;;;;;;;;;5094256;28;20181;-77
2022/09/16 04:53:42;;;;;;;12.07;9.73;;;;;;;;;;5093968;28;20186;-77
2022/09/16 04:56:46;;;;;;;12.53;9.80;;;;;;;;;;5093467;28;20202;-77
2022/09/16 04:59:50;;;;;;;16.57;10.00;;;;;;;;;;5094594;28;20171;-77
2022/09/16 05:02:55;;;;;;;14.73;10.07;;;;;;;;;;5094221;28;20221;-77
2022/09/16 05:06:11;;;;;;;10.37;9.27;;;;;;;;;;5094360;28;20186;-77
2022/09/16 05:09:15;;;;;;;14.73;10.00;;;;;;;;;;5093613;28;20183;-77
2022/09/16 05:12:19;;;;;;;15.40;10.03;;;;;;;;;;5094365;28;20221;-77
2022/09/16 05:15:23;;;;;;;16.07;9.77;;;;;;;;;;5094193;28;20530;-77
2022/09/16 05:18:27;;;;;;;13.60;10.20;;;;;;;;;;5093928;28;20190;-77
2022/09/16 05:21:34;;;;;;;14.30;9.70;;;;;;;;;;5093633;28;20716;-76
2022/09/16 05:24:38;;;;;;;13.47;9.27;;;;;;;;;;5093535;28;20206;-77
2022/09/16 05:27:42;;;;;;;10.87;9.07;;;;;;;;;;5093370;28;20171;-77
2022/09/16 05:30:46;;;;;;;11.23;9.87;;;;;;;;;;5093268;28;20170;-77
2022/09/16 05:33:54;;;;;;;11.50;9.30;;;;;;;;;;5093311;28;20170;-77
2022/09/16 05:36:59;;;;;;;17.57;10.83;;;;;;;;;;5094404;28;20175;-77
2022/09/16 05:40:03;;;;;;;13.83;9.43;;;;;;;;;;5104530;28;20272;-77
2022/09/16 05:43:08;;;;;;;13.90;9.63;;;;;;;;;;5092927;28;20225;-76
2022/09/16 05:46:20;;;;;;;14.73;9.67;;;;;;;;;;5080737;28;20178;-77
2022/09/16 05:49:24;;;;;;;15.90;10.17;;;;;;;;;;5093706;28;20178;-77
2022/09/16 05:52:28;;;;;;;14.37;9.57;;;;;;;;;;5093419;28;20218;-77
2022/09/16 05:55:33;;;;;;;16.90;10.70;;;;;;;;;;5093104;28;20202;-77
2022/09/16 05:58:38;;;;;;;13.27;9.43;;;;;;;;;;5094053;28;20190;-77
2022/09/16 06:01:42;;;;;;;14.40;10.07;;;;;;;;;;5097051;28;20218;-77
2022/09/16 06:04:47;;;;;;;13.47;9.83;;;;;;;;;;5098362;28;20221;-77
2022/09/16 06:07:55;;;;;;;16.57;10.00;;;;;;;;;;5098391;28;20178;-77
2022/09/16 06:11:03;;;;;;;14.47;9.37;;;;;;;;;;5097770;28;20186;-77
2022/09/16 06:14:09;;;;;;;13.27;8.70;;;;;;;;;;5098122;28;20175;-77
2022/09/16 06:17:13;;;;;;;12.77;9.07;;;;;;;;;;5097894;28;20194;-77
2022/09/16 06:20:17;;;;;;;15.90;10.43;;;;;;;;;;5097808;28;20629;-77
2022/09/16 06:23:22;;;;;;;11.53;9.20;;;;;;;;;;5097590;28;20230;-77
2022/09/16 06:26:27;;;;;;;15.77;9.13;;;;;;;;;;5085135;28;20179;-77
2022/09/16 06:29:31;;;;;;;12.03;8.87;;;;;;;;;;5097632;28;20179;-77
2022/09/16 06:32:35;;;;;;;11.60;9.03;;;;;;;;;;5097042;28;20218;-77
2022/09/16 06:35:39;;;;;;;10.57;9.10;;;;;;;;;;5097457;28;20171;-77
2022/09/16 06:38:45;;;;;;;10.80;8.60;;;;;;;;;;5096515;28;20515;-77
2022/09/16 06:41:49;;;;;;;10.83;8.77;;;;;;;;;;5107945;28;20218;-77
2022/09/16 06:44:54;;;;;;;15.60;8.60;;;;;;;;;;5096817;28;20203;-77
2022/09/16 06:47:59;;;;;;;10.07;8.10;;;;;;;;;;5096918;28;20642;-77
2022/09/16 06:51:05;;;;;;;14.23;9.17;;;;;;;;;;5096748;28;20174;-77
2022/09/16 06:54:09;;;;;;;10.87;8.97;;;;;;;;;;5096629;28;20626;-77
2022/09/16 06:57:13;;;;;;;11.23;9.20;;;;;;;;;;5096243;28;20669;-77
2022/09/16 07:00:17;;;;;;;12.73;8.63;;;;;;;;;;5096639;28;20194;-77
2022/09/16 07:03:22;;;;;;;10.90;8.13;;;;;;;;;;5096654;28;20191;-77
2022/09/16 07:06:28;;;;;;;14.67;9.07;;;;;;;;;;5096698;28;20198;-77
2022/09/16 07:09:32;;;;;;;14.63;9.03;;;;;;;;;;5107681;28;20171;-77
2022/09/16 07:12:36;;;;;;;16.87;9.50;;;;;;;;;;5106379;28;20558;-77
2022/09/16 07:15:40;;;;;;;18.50;10.10;;;;;;;;;;5096426;28;20171;-77
2022/09/16 07:18:47;;;;;;;12.17;8.87;;;;;;;;;;5095533;28;20645;-77
2022/09/16 07:21:51;;;;;;;13.03;9.03;;;;;;;;;;5084388;28;20210;-77
2022/09/16 07:24:55;;;;;;;14.47;9.47;;;;;;;;;;5096148;28;20206;-77
2022/09/16 07:27:59;;;;;;;13.10;8.97;;;;;;;;;;5096720;28;20194;-77
2022/09/16 07:31:05;;;;;;;12.17;9.23;;;;;;;;;;5096888;28;20175;-77
2022/09/16 07:34:11;;;;;;;11.93;8.70;;;;;;;;;;5096449;28;20630;-77
2022/09/16 07:37:16;;;;;;;23.90;9.60;;;;;;;;;;5096229;28;20182;-77
2022/09/16 07:40:21;;;;;;;14.37;9.03;;;;;;;;;;5096855;28;20179;-77
2022/09/16 07:43:26;;;;;;;11.70;9.03;;;;;;;;;;5096645;28;20178;-77
2022/09/16 07:46:33;;;;;;;14.53;9.23;;;;;;;;;;5096213;28;20175;-77
2022/09/16 07:49:37;;;;;;;14.30;10.03;;;;;;;;;;5083774;28;20174;-77
2022/09/16 07:52:41;;;;;;;13.50;9.40;;;;;;;;;;5095778;28;20221;-77
2022/09/16 07:55:46;;;;;;;15.80;9.03;;;;;;;;;;5095581;28;20661;-77
2022/09/16 07:58:51;;;;;;;17.97;9.03;;;;;;;;;;5095954;28;20179;-77
2022/09/16 08:01:55;;;;;;;13.63;9.57;;;;;;;;;;5095175;28;20558;-77
2022/09/16 08:04:59;;;;;;;20.07;8.57;;;;;;;;;;5095954;28;20203;-77
2022/09/16 08:08:04;;;;;;;18.70;8.97;;;;;;;;;;5094697;28;20183;-77
2022/09/16 08:11:09;;;;;;;11.73;8.67;;;;;;;;;;5095322;28;20175;-77
2022/09/16 08:14:13;;;;;;;11.97;8.17;;;;;;;;;;5094571;28;20167;-77
2022/09/16 08:17:17;;;;;;;14.50;8.17;;;;;;;;;;5094249;28;20198;-77
2022/09/16 08:20:23;;;;;;;14.13;7.93;;;;;;;;;;5106402;28;20175;-77
2022/09/16 08:23:28;;;;;;;9.60;7.43;;;;;;;;;;5070954;28;20174;-77
2022/09/16 08:26:32;;;;;;;11.70;7.80;;;;;;;;;;5095220;28;20175;-77
2022/09/16 08:29:36;;;;;;;11.87;7.27;;;;;;;;;;5095354;28;20183;-77
2022/09/16 08:32:41;;;;;;;9.60;5.63;;;;;;;;;;5094815;28;20210;-77
2022/09/16 08:35:45;;;;;;;8.77;5.63;;;;;;;;;;5095303;28;20171;-77
2022/09/16 08:38:53;;;;;;;13.03;6.03;;;;;;;;;;5095219;28;20187;-77
2022/09/16 08:42:21;;;;;;;19.47;6.03;;;;;;;;;;5095011;28;20214;-77
2022/09/16 08:45:42;;;;;;;10.63;5.37;;;;;;;;;;5094693;28;20202;-77
2022/09/16 08:49:30;;;;;;;8.97;5.30;;;;;;;;;;5082572;28;20183;-77
2022/09/16 08:52:39;;;;;;;9.60;5.33;;;;;;;;;;5105771;28;20214;-77
2022/09/16 08:55:47;;;;;;;17.10;5.60;;;;;;;;;;5094743;28;20195;-78
2022/09/16 08:58:59;;;;;;;12.27;5.27;;;;;;;;;;5094517;28;20523;-77
2022/09/16 09:02:25;;;;;;;6.47;5.17;;;;;;;;;;5093880;28;20206;-78
2022/09/16 09:05:50;;;;;;;10.07;5.90;;;;;;;;;;5094994;28;20234;-77
2022/09/16 09:09:13;;;;;;;7.60;5.60;;;;;;;;;;5106142;28;20179;-77
2022/09/16 09:12:28;;;;;;;15.07;6.13;;;;;;;;;;5094023;28;20219;-77
2022/09/16 09:15:40;;;;;;;12.47;6.03;;;;;;;;;;5094357;28;20175;-77
2022/09/16 09:19:04;;;;;;;10.10;6.70;;;;;;;;;;5095262;28;20187;-77
2022/09/16 09:22:24;;;;;;;9.53;6.57;;;;;;;;;;5094781;28;20214;-77
2022/09/16 09:25:38;;;;;;;12.67;7.20;;;;;;;;;;5094637;28;20211;-78
2022/09/16 09:28:57;;;;;;;11.47;6.90;;;;;;;;;;5094421;28;20194;-77
2022/09/16 09:32:22;;;;;;;11.77;5.70;;;;;;;;;;5093064;28;20214;-77
2022/09/16 09:35:39;;;;;;;12.97;6.73;;;;;;;;;;5094207;28;20649;-77
2022/09/16 09:39:36;;;;;;;8.50;6.57;;;;;;;;;;5105539;28;20183;-77
2022/09/16 09:42:50;;;;;;;9.13;7.20;;;;;;;;;;5086547;28;20222;-77
2022/09/16 09:46:09;;;;;;;9.90;6.27;;;;;;;;;;5093756;28;20207;-77
2022/09/16 09:49:21;;;;;;;11.17;6.90;;;;;;;;;;5093936;28;20183;-77
2022/09/16 09:52:43;;;;;;;11.83;6.70;;;;;;;;;;5093217;28;20215;-77
2022/09/16 09:55:53;;;;;;;8.27;6.50;;;;;;;;;;5081169;28;20701;-76
2022/09/16 09:59:55;;;;;;;8.50;5.90;;;;;;;;;;5093531;28;20179;-77
2022/09/16 10:03:10;;;;;;;11.47;6.17;;;;;;;;;;5033133;28;20213;-77
2022/09/16 10:06:14;;;;;;;9.63;6.33;;;;;;;;;;5034595;28;20731;-78
2022/09/16 10:09:20;;;;;;;12.60;7.57;;;;;;;;;;5105051;28;20179;-77
2022/09/16 10:12:34;;;;;;;11.67;9.33;;;;;;;;;;5103799;28;20211;-77
2022/09/16 10:15:39;;;;;;;10.03;6.70;;;;;;;;;;5104124;28;20175;-77
2022/09/16 10:18:43;;;;;;;8.83;6.90;;;;;;;;;;5093123;28;20539;-77
2022/09/16 10:21:52;;;;;;;10.20;6.33;;;;;;;;;;5080536;28;20210;-76
2022/09/16 10:25:07;;;;;;;9.23;5.30;;;;;;;;;;5093111;28;20206;-77
2022/09/16 10:28:24;;;;;;;7.07;4.10;;;;;;;;;;5093007;28;20516;-77
2022/09/16 10:31:40;;;;;;;7.13;4.07;;;;;;;;;;5093010;28;20214;-77
2022/09/16 10:34:45;;;;;;;6.23;4.10;;;;;;;;;;5093207;28;20179;-77
2022/09/16 10:37:53;;;;;;;7.00;4.30;;;;;;;;;;5092734;28;20179;-76
2022/09/16 10:41:07;;;;;;;8.43;4.33;;;;;;;;;;5103763;28;20179;-77
2022/09/16 10:44:23;;;;;;;4.00;3.40;;;;;;;;;;5104261;28;20179;-77
2022/09/16 10:47:31;;;;;;;5.43;3.10;;;;;;;;;;5095538;28;20198;-76
2022/09/16 10:50:34;;;;;;;4.77;3.23;;;;;;;;;;5096141;28;20182;-77
2022/09/16 10:53:43;;;;;;;7.93;4.43;;;;;;;;;;5095602;28;20514;-76
2022/09/16 10:56:50;;;;;;;8.87;3.90;;;;;;;;;;5095134;28;20195;-77
2022/09/16 11:00:07;;;;;;;8.40;3.67;;;;;;;;;;5072668;28;20174;-77
2022/09/16 11:03:27;;;;;;;6.13;3.57;;;;;;;;;;5095773;28;20222;-77
2022/09/16 11:06:34;;;;;;;5.53;4.00;;;;;;;;;;5095859;28;20210;-76
2022/09/16 11:09:56;;;;;;;5.90;4.00;;;;;;;;;;5095190;28;20183;-77
2022/09/16 11:13:16;;;;;;;8.27;4.07;;;;;;;;;;5095921;28;20214;-76
2022/09/16 11:16:52;;;;;;;5.03;3.57;;;;;;;;;;5094791;28;20175;-77
2022/09/16 11:20:28;;;;;;;4.70;3.47;;;;;;;;;;5047036;28;20198;-77
2022/09/16 11:24:06;;;;;;;5.07;4.10;;;;;;;;;;5106810;28;20183;-76
2022/09/16 11:27:10;;;;;;;7.10;4.43;;;;;;;;;;5095741;28;20683;-76
2022/09/16 11:30:21;;;;;;;8.07;4.10;;;;;;;;;;5095328;28;20206;-76
2022/09/16 11:34:28;;;;;;;5.70;3.20;;;;;;;;;;5094846;28;20507;-76
2022/09/16 11:38:02;;;;;;;6.53;3.73;;;;;;;;;;5047446;28;20195;-76
2022/09/16 11:41:39;;;;;;;3.93;3.00;;;;;;;;;;5095268;28;20187;-76
2022/09/16 11:44:50;;;;;;;4.47;2.93;;;;;;;;;;5095369;28;20174;-76
2022/09/16 11:48:16;;;;;;;5.93;2.90;;;;;;;;;;5095110;28;20179;-76
2022/09/16 11:51:29;;;;;;;3.23;2.70;;;;;;;;;;5095304;28;20211;-76
2022/09/16 11:54:59;;;;;;;5.63;3.10;;;;;;;;;;5095038;28;20190;-76
2022/09/16 11:58:51;;;;;;;4.43;3.10;;;;;;;;;;5093540;28;20522;-77
2022/09/16 12:02:02;;;;;;;3.90;3.10;;;;;;;;;;5094216;28;20219;-77
2022/09/16 12:05:18;;;;;;;6.80;3.60;;;;;;;;;;5093790;28;20218;-76
2022/09/16 12:08:57;;;;;;;5.73;3.43;;;;;;;;;;5094715;28;20183;-77
2022/09/16 12:12:33;;;;;;;4.37;3.23;;;;;;;;;;5093697;28;20222;-76
2022/09/16 12:15:49;;;;;;;3.27;2.67;;;;;;;;;;5089915;28;20199;-77
2022/09/16 12:18:57;;;;;;;3.47;1.80;;;;;;;;;;5105588;28;20179;-76
2022/09/16 12:22:16;;;;;;;2.23;1.87;;;;;;;;;;5094517;28;20222;-77
2022/09/16 12:25:41;;;;;;;3.87;1.73;;;;;;;;;;5094341;28;20203;-77
2022/09/16 12:29:02;;;;;;;4.70;2.33;;;;;;;;;;5094254;28;20183;-76
2022/09/16 12:32:20;;;;;;;5.30;2.83;;;;;;;;;;5094189;28;20551;-76
2022/09/16 12:35:40;;;;;;;2.80;2.30;;;;;;;;;;5093541;28;20190;-76
2022/09/16 12:38:44;;;;;;;4.83;3.00;;;;;;;;;;5093646;28;20183;-76
2022/09/16 12:41:57;;;;;;;4.17;3.63;;;;;;;;;;5093156;28;20218;-76
2022/09/16 12:45:29;;;;;;;3.90;2.77;;;;;;;;;;5094329;28;20187;-76
2022/09/16 12:49:21;;;;;;;7.67;3.70;;;;;;;;;;5093385;28;20183;-76
2022/09/16 12:52:54;;;;;;;4.20;3.30;;;;;;;;;;5082700;28;20210;-76
2022/09/16 12:56:18;;;;;;;5.20;3.87;;;;;;;;;;5092825;28;20202;-76
2022/09/16 12:59:46;;;;;;;5.27;3.60;;;;;;;;;;5081266;28;20183;-76
2022/09/16 13:02:54;;;;;;;5.50;3.30;;;;;;;;;;5092929;28;20558;-76
2022/09/16 13:06:01;;;;;;;4.40;3.40;;;;;;;;;;5093555;28;20559;-76
2022/09/16 13:09:47;;;;;;;5.33;4.17;;;;;;;;;;5093556;28;20199;-76
2022/09/16 13:12:58;;;;;;;5.00;3.37;;;;;;;;;;5093661;28;20215;-76
2022/09/16 13:16:05;;;;;;;8.53;5.80;;;;;;;;;;5094091;28;20191;-76
2022/09/16 13:19:26;;;;;;;9.23;6.10;;;;;;;;;;5081479;28;20191;-77
2022/09/16 13:22:37;;;;;;;6.27;4.00;;;;;;;;;;5093636;28;20219;-77
2022/09/16 13:25:57;;;;;;;17.97;13.90;;;;;;;;;;5093741;28;20219;-77
2022/09/16 13:29:01;;;;;;;8.60;6.13;;;;;;;;;;5094099;28;20182;-76
2022/09/16 13:32:24;;;;;;;4.20;2.70;;;;;;;;;;5093374;28;20218;-77
2022/09/16 13:35:34;;;;;;;5.00;3.33;;;;;;;;;;5093847;28;20176;-76
2022/09/16 13:38:42;;;;;;;3.50;2.97;;;;;;;;;;5093725;28;20194;-77
2022/09/16 13:41:46;;;;;;;6.50;4.07;;;;;;;;;;5092396;28;20214;-77
2022/09/16 13:44:51;;;;;;;6.43;5.60;;;;;;;;;;5093201;28;20202;-77
2022/09/16 13:47:55;;;;;;;5.70;4.67;;;;;;;;;;5092809;28;20175;-77
2022/09/16 13:51:06;;;;;;;4.63;3.93;;;;;;;;;;5093711;28;20175;-77
2022/09/16 13:54:34;;;;;;;3.40;2.70;;;;;;;;;;5093181;28;20183;-77
2022/09/16 13:58:22;;;;;;;6.47;3.50;;;;;;;;;;5094510;28;20167;-77
2022/09/16 14:02:11;;;;;;;5.17;2.70;;;;;;;;;;5104614;28;20215;-76
2022/09/16 14:06:08;;;;;;;3.50;2.70;;;;;;;;;;5093658;28;20179;-77
2022/09/16 14:09:25;;;;;;;6.37;2.87;;;;;;;;;;5085016;28;20202;-77
2022/09/16 14:12:37;;;;;;;4.77;2.50;;;;;;;;;;5093322;28;20211;-77
2022/09/16 14:15:49;;;;;;;6.73;4.83;;;;;;;;;;5093765;28;20191;-77
2022/09/16 14:19:04;;;;;;;6.37;4.97;;;;;;;;;;5094215;28;20183;-77
2022/09/16 14:22:17;;;;;;;4.03;3.27;;;;;;;;;;5096715;28;20218;-76
2022/09/16 14:25:24;;;;;;;4.97;2.73;;;;;;;;;;5097178;28;20297;-77
2022/09/16 14:28:29;;;;;;;4.37;2.20;;;;;;;;;;5096571;28;20178;-77
2022/09/16 14:31:33;;;;;;;8.13;2.10;;;;;;;;;;5096203;28;20218;-77
2022/09/16 14:34:37;;;;;;;2.73;2.27;;;;;;;;;;5097640;28;20183;-77
2022/09/16 14:37:45;;;;;;;4.60;2.50;;;;;;;;;;5095905;28;20191;-77
2022/09/16 14:40:49;;;;;;;3.47;2.67;;;;;;;;;;5096105;28;20642;-76
2022/09/16 14:43:59;;;;;;;6.73;3.20;;;;;;;;;;5084928;28;20182;-77
2022/09/16 14:47:09;;;;;;;5.90;3.10;;;;;;;;;;5095510;28;20207;-77
2022/09/16 14:50:26;;;;;;;4.20;2.73;;;;;;;;;;5096338;28;20183;-77
2022/09/16 14:53:35;;;;;;;5.00;2.70;;;;;;;;;;5096446;28;20179;-76
2022/09/16 14:56:39;;;;;;;4.20;2.40;;;;;;;;;;5096372;28;20191;-77
2022/09/16 14:59:43;;;;;;;12.30;6.60;;;;;;;;;;5096017;28;20515;-77
2022/09/16 15:02:50;;;;;;;9.23;6.27;;;;;;;;;;5095282;28;20206;-77
2022/09/16 15:05:59;;;;;;;7.30;3.00;;;;;;;;;;5096191;28;20202;-77
2022/09/16 15:09:16;;;;;;;5.40;3.30;;;;;;;;;;5096408;28;20183;-77
2022/09/16 15:12:26;;;;;;;2.50;2.30;;;;;;;;;;5083498;28;20559;-76
2022/09/16 15:15:33;;;;;;;5.67;2.70;;;;;;;;;;5096277;28;20175;-77
2022/09/16 15:18:40;;;;;;;3.77;2.90;;;;;;;;;;5095895;28;20179;-77
2022/09/16 15:21:45;;;;;;;5.73;3.03;;;;;;;;;;5106902;28;20219;-77
2022/09/16 15:24:52;;;;;;;5.10;3.47;;;;;;;;;;5096191;28;20178;-77
2022/09/16 15:28:14;;;;;;;3.50;2.80;;;;;;;;;;5095823;28;20225;-77
2022/09/16 15:31:39;;;;;;;3.63;3.23;;;;;;;;;;5095325;28;20688;-77
2022/09/16 15:34:44;;;;;;;4.07;3.10;;;;;;;;;;5094888;28;20175;-77
2022/09/16 15:37:49;;;;;;;7.30;3.50;;;;;;;;;;5083789;28;20179;-77
2022/09/16 15:41:04;;;;;;;4.23;3.70;;;;;;;;;;5095403;28;20175;-77
2022/09/16 15:44:08;;;;;;;7.73;5.33;;;;;;;;;;5096224;28;20626;-77
2022/09/16 15:47:17;;;;;;;6.47;3.97;;;;;;;;;;5095581;28;20219;-77
2022/09/16 15:50:22;;;;;;;5.27;3.70;;;;;;;;;;5095944;28;20626;-76
2022/09/16 15:53:29;;;;;;;7.43;3.60;;;;;;;;;;5095693;28;20182;-77
2022/09/16 15:56:40;;;;;;;4.83;3.63;;;;;;;;;;5094202;28;20202;-77
2022/09/16 16:00:11;;;;;;;6.80;3.83;;;;;;;;;;5095651;28;20192;-77
2022/09/16 16:03:19;;;;;;;4.67;3.10;;;;;;;;;;5094420;28;20626;-77
2022/09/16 16:06:50;;;;;;;9.00;4.93;;;;;;;;;;5094428;28;20207;-77
2022/09/16 16:10:10;;;;;;;7.17;4.00;;;;;;;;;;5095376;28;20179;-77
2022/09/16 16:13:14;;;;;;;4.90;3.53;;;;;;;;;;5095811;28;20203;-76
2022/09/16 16:16:18;;;;;;;10.40;5.03;;;;;;;;;;5094850;28;20191;-77
2022/09/16 16:19:23;;;;;;;5.97;3.80;;;;;;;;;;5095174;28;20202;-77
2022/09/16 16:22:27;;;;;;;6.60;3.60;;;;;;;;;;5094239;28;20551;-77
2022/09/16 16:25:31;;;;;;;4.47;3.30;;;;;;;;;;5082264;28;20179;-77
2022/09/16 16:28:37;;;;;;;9.00;3.70;;;;;;;;;;5093790;28;20174;-77
2022/09/16 16:32:00;;;;;;;6.67;4.00;;;;;;;;;;5093953;28;20685;-77
2022/09/16 16:35:05;;;;;;;6.80;3.63;;;;;;;;;;5094670;28;20183;-77
2022/09/16 16:38:09;;;;;;;5.27;4.20;;;;;;;;;;5094224;28;20178;-77
2022/09/16 16:41:21;;;;;;;6.67;4.77;;;;;;;;;;5094526;28;20218;-76
2022/09/16 16:44:25;;;;;;;8.40;4.33;;;;;;;;;;5094093;28;20174;-77
2022/09/16 16:47:29;;;;;;;5.40;4.30;;;;;;;;;;5093161;28;20222;-77
2022/09/16 16:50:34;;;;;;;5.70;4.57;;;;;;;;;;5093304;28;20198;-77
2022/09/16 16:53:38;;;;;;;6.03;4.17;;;;;;;;;;5093983;28;20179;-77
2022/09/16 16:56:43;;;;;;;5.73;4.37;;;;;;;;;;5093685;28;20202;-77
2022/09/16 16:59:47;;;;;;;7.77;4.70;;;;;;;;;;5105107;28;20195;-77
2022/09/16 17:02:51;;;;;;;8.20;5.27;;;;;;;;;;5093674;28;20210;-77
2022/09/16 17:05:55;;;;;;;7.20;5.30;;;;;;;;;;5093168;28;20182;-77
2022/09/16 17:09:02;;;;;;;7.67;4.80;;;;;;;;;;5105165;28;20179;-77
2022/09/16 17:12:07;;;;;;;8.83;5.37;;;;;;;;;;5093619;28;20214;-77
2022/09/16 17:15:11;;;;;;;7.90;4.60;;;;;;;;;;5093561;28;20194;-77
2022/09/16 17:18:15;;;;;;;6.17;3.97;;;;;;;;;;5093548;28;20187;-77
2022/09/16 17:21:26;;;;;;;6.57;4.67;;;;;;;;;;5092622;28;20214;-77
2022/09/16 17:24:30;;;;;;;5.73;4.63;;;;;;;;;;5093666;28;20241;-77
2022/09/16 17:27:34;;;;;;;5.20;4.53;;;;;;;;;;5093621;28;20218;-77
2022/09/16 17:30:41;;;;;;;7.80;4.60;;;;;;;;;;5092812;28;20194;-77
2022/09/16 17:33:47;;;;;;;7.40;4.97;;;;;;;;;;5093610;28;20179;-77
2022/09/16 17:36:50;;;;;;;9.67;5.47;;;;;;;;;;5081032;28;20191;-77
2022/09/16 17:39:55;;;;;;;7.30;5.50;;;;;;;;;;5093198;28;20194;-77
2022/09/16 17:42:59;;;;;;;7.47;5.63;;;;;;;;;;5093432;28;20215;-77
2022/09/16 17:46:05;;;;;;;7.23;5.63;;;;;;;;;;5093751;28;20187;-77
2022/09/16 17:49:21;;;;;;;7.73;5.30;;;;;;;;;;5104469;28;20175;-76
2022/09/16 17:52:25;;;;;;;8.67;5.80;;;;;;;;;;5093893;28;20207;-77
2022/09/16 17:55:29;;;;;;;6.50;5.47;;;;;;;;;;5105291;28;20538;-77
2022/09/16 17:58:36;;;;;;;7.63;6.03;;;;;;;;;;5097756;28;20511;-77
2022/09/16 18:01:40;;;;;;;6.93;6.23;;;;;;;;;;5097186;28;20218;-77
2022/09/16 18:04:44;;;;;;;9.40;6.53;;;;;;;;;;5084937;28;20170;-77
2022/09/16 18:07:48;;;;;;;9.10;7.00;;;;;;;;;;5096228;28;20202;-77
2022/09/16 18:10:52;;;;;;;9.47;7.10;;;;;;;;;;5096946;28;20174;-77
2022/09/16 18:13:58;;;;;;;10.03;7.30;;;;;;;;;;5096891;28;20202;-77
2022/09/16 18:17:02;;;;;;;12.37;9.57;;;;;;;;;;5097058;28;20170;-77
2022/09/16 18:20:07;;;;;;;11.23;9.37;;;;;;;;;;5096002;28;20183;-77
2022/09/16 18:23:11;;;;;;;13.10;8.67;;;;;;;;;;5107586;28;20218;-77
2022/09/16 18:26:15;;;;;;;12.43;8.57;;;;;;;;;;5096848;28;20175;-77
2022/09/16 18:29:19;;;;;;;9.27;6.80;;;;;;;;;;5096948;28;20171;-77
2022/09/16 18:32:23;;;;;;;8.30;6.40;;;;;;;;;;5096635;28;20211;-76
2022/09/16 18:35:27;;;;;;;11.20;6.97;;;;;;;;;;5096509;28;20183;-77
2022/09/16 18:38:32;;;;;;;8.13;6.73;;;;;;;;;;5095910;28;20179;-77
2022/09/16 18:41:39;;;;;;;13.67;6.67;;;;;;;;;;5072436;28;20566;-76
2022/09/16 18:44:43;;;;;;;8.47;7.17;;;;;;;;;;5072978;28;20175;-77
2022/09/16 18:47:47;;;;;;;9.30;6.93;;;;;;;;;;5095482;28;20203;-76
2022/09/16 18:50:51;;;;;;;12.53;6.37;;;;;;;;;;5096231;28;20178;-77